createdAt,value
2022-08-22T00:00:19.653Z,19.58
2022-08-22T00:02:46.056Z,20.67
2022-08-22T00:03:11.261Z,21.89
2022-08-22T00:06:07.742Z,19.65
2022-08-22T00:08:47.217Z,19.62
2022-08-22T00:11:52.908Z,19.43
2022-08-22T00:14:44.954Z,19.52
2022-08-22T00:17:29.205Z,19.49
2022-08-22T00:20:09.551Z,19.47
2022-08-22T00:22:55.574Z,19.27
2022-08-22T00:25:25.938Z,19.35
2022-08-22T00:28:25.107Z,19.32
2022-08-22T00:31:08.036Z,19.31
2022-08-22T00:33:56.038Z,19.33
2022-08-22T00:36:34.622Z,19.35
2022-08-22T00:39:27.251Z,19.20
2022-08-22T00:42:31.548Z,19.35
2022-08-22T00:45:16.752Z,19.42
2022-08-22T00:48:40.644Z,19.23
2022-08-22T00:51:29.242Z,19.18
2022-08-22T00:54:37.672Z,19.15
2022-08-22T00:57:45.288Z,19.11
2022-08-22T01:00:24.537Z,19.11
2022-08-22T01:03:22.502Z,19.08
2022-08-22T01:06:08.981Z,19.07
2022-08-22T01:09:29.623Z,19.07
2022-08-22T01:12:27.504Z,19.02
2022-08-22T01:15:08.709Z,19.04
2022-08-22T01:17:50.681Z,19.02
2022-08-22T01:20:36.212Z,19.03
2022-08-22T01:23:25.424Z,19.03
2022-08-22T01:26:14.495Z,19.04
2022-08-22T01:29:00.019Z,19.10
2022-08-22T01:31:48.133Z,19.01
2022-08-22T01:34:36.168Z,19.08
2022-08-22T01:37:24.821Z,19.06
2022-08-22T01:40:03.873Z,19.10
2022-08-22T01:42:34.615Z,19.11
2022-08-22T01:45:30.704Z,19.12
2022-08-22T01:48:17.059Z,19.16
2022-08-22T01:51:12.091Z,19.10
2022-08-22T01:53:43.659Z,19.13
2022-08-22T01:56:16.496Z,19.22
2022-08-22T01:58:55.410Z,19.32
2022-08-22T02:01:28.441Z,19.39
2022-08-22T02:04:16.505Z,19.34
2022-08-22T02:07:01.802Z,19.37
2022-08-22T02:10:02.443Z,19.27
2022-08-22T02:12:45.053Z,19.07
2022-08-22T02:15:14.818Z,18.96
2022-08-22T02:18:10.208Z,19.05
2022-08-22T02:20:39.873Z,19.07
2022-08-22T02:23:43.595Z,19.03
2022-08-22T02:26:17.704Z,18.97
2022-08-22T02:29:10.642Z,18.90
2022-08-22T02:32:02.312Z,18.96
2022-08-22T02:34:41.186Z,18.93
2022-08-22T02:37:17.045Z,18.94
2022-08-22T02:40:12.575Z,18.95
2022-08-22T02:42:58.859Z,18.82
2022-08-22T02:45:45.104Z,18.87
2022-08-22T02:48:34.099Z,18.95
2022-08-22T02:51:31.210Z,18.98
2022-08-22T02:54:14.222Z,19.04
2022-08-22T02:56:49.055Z,18.99
2022-08-22T02:59:25.030Z,18.96
2022-08-22T03:01:52.635Z,18.90
2022-08-22T03:04:28.459Z,18.90
2022-08-22T03:07:17.481Z,18.76
2022-08-22T03:10:12.003Z,18.89
2022-08-22T03:13:01.142Z,18.67
2022-08-22T03:15:49.399Z,18.72
2022-08-22T03:18:45.625Z,18.66
2022-08-22T03:21:30.339Z,18.77
2022-08-22T03:24:06.588Z,18.80
2022-08-22T03:26:48.496Z,18.71
2022-08-22T03:29:30.733Z,18.81
2022-08-22T03:32:19.411Z,18.79
2022-08-22T03:35:00.450Z,18.68
2022-08-22T03:37:39.181Z,18.31
2022-08-22T03:40:32.099Z,18.46
2022-08-22T03:43:11.221Z,18.45
2022-08-22T03:45:56.250Z,18.38
2022-08-22T03:48:55.545Z,18.38
2022-08-22T03:51:28.629Z,18.43
2022-08-22T03:54:18.663Z,18.40
2022-08-22T03:57:06.155Z,18.44
2022-08-22T03:59:48.088Z,18.34
2022-08-22T04:02:43.142Z,18.35
2022-08-22T04:05:15.332Z,18.17
2022-08-22T04:08:01.899Z,18.21
2022-08-22T04:10:39.046Z,18.14
2022-08-22T04:13:24.763Z,18.10
2022-08-22T04:16:22.252Z,18.01
2022-08-22T04:19:24.688Z,17.94
2022-08-22T04:22:25.360Z,18.00
2022-08-22T04:25:17.321Z,18.00
2022-08-22T04:28:23.234Z,17.90
2022-08-22T04:31:12.621Z,18.05
2022-08-22T04:33:47.636Z,18.00
2022-08-22T04:36:26.490Z,17.85
2022-08-22T04:39:09.412Z,17.78
2022-08-22T04:41:50.199Z,17.56
2022-08-22T04:44:35.916Z,17.53
2022-08-22T04:47:09.632Z,17.65
2022-08-22T04:49:43.551Z,17.57
2022-08-22T04:52:41.086Z,17.65
2022-08-22T04:55:19.888Z,17.46
2022-08-22T04:58:29.496Z,17.62
2022-08-22T05:01:01.987Z,17.62
2022-08-22T05:03:33.180Z,17.70
2022-08-22T05:06:03.264Z,17.74
2022-08-22T05:08:35.481Z,17.76
2022-08-22T05:11:06.109Z,17.80
2022-08-22T05:13:44.162Z,17.81
2022-08-22T05:16:20.356Z,17.80
2022-08-22T05:18:55.039Z,17.99
2022-08-22T05:21:27.079Z,18.05
2022-08-22T05:24:03.494Z,18.05
2022-08-22T05:26:38.510Z,17.96
2022-08-22T05:29:08.784Z,17.94
2022-08-22T05:31:41.737Z,18.06
2022-08-22T05:34:16.685Z,18.02
2022-08-22T05:36:55.405Z,18.04
2022-08-22T05:39:27.910Z,18.13
2022-08-22T05:41:57.382Z,17.08
2022-08-22T05:44:30.707Z,17.04
2022-08-22T05:47:02.876Z,17.54
2022-08-22T05:49:55.898Z,17.95
2022-08-22T05:53:10.696Z,18.35
2022-08-22T05:55:52.492Z,18.32
2022-08-22T05:58:40.263Z,18.48
2022-08-22T06:01:28.963Z,18.55
2022-08-22T06:04:08.302Z,18.77
2022-08-22T06:06:57.324Z,18.85
2022-08-22T06:09:35.461Z,19.04
2022-08-22T06:12:31.278Z,19.30
2022-08-22T06:15:29.020Z,19.45
2022-08-22T06:18:01.981Z,19.55
2022-08-22T06:20:37.168Z,19.81
2022-08-22T06:23:07.921Z,19.95
2022-08-22T06:25:39.043Z,19.86
2022-08-22T06:28:20.279Z,19.98
2022-08-22T06:30:51.131Z,20.01
2022-08-22T06:33:24.224Z,20.09
2022-08-22T06:36:16.361Z,20.28
2022-08-22T06:39:27.932Z,20.32
2022-08-22T06:42:01.399Z,20.42
2022-08-22T06:44:36.589Z,20.54
2022-08-22T06:47:08.474Z,20.60
2022-08-22T06:49:37.656Z,20.65
2022-08-22T06:52:25.063Z,20.89
2022-08-22T06:55:02.845Z,21.02
2022-08-22T06:57:34.804Z,21.13
2022-08-22T07:00:07.626Z,21.23
2022-08-22T07:02:40.641Z,21.32
2022-08-22T07:05:13.980Z,21.40
2022-08-22T07:07:40.910Z,21.57
2022-08-22T07:10:14.725Z,21.66
2022-08-22T07:12:50.867Z,21.71
2022-08-22T07:15:37.180Z,21.85
2022-08-22T07:18:15.393Z,22.11
2022-08-22T07:20:46.968Z,22.37
2022-08-22T07:23:36.382Z,22.40
2022-08-22T07:26:09.272Z,22.54
2022-08-22T07:28:58.723Z,22.61
2022-08-22T07:31:55.846Z,22.78
2022-08-22T07:34:59.850Z,22.70
2022-08-22T07:37:47.316Z,22.68
2022-08-22T07:40:32.551Z,22.86
2022-08-22T07:43:08.417Z,22.94
2022-08-22T07:45:55.023Z,22.99
2022-08-22T07:48:33.999Z,23.14
2022-08-22T07:51:13.639Z,22.82
2022-08-22T07:53:44.179Z,22.72
2022-08-22T07:56:27.030Z,22.63
2022-08-22T07:58:58.889Z,23.05
2022-08-22T08:01:27.227Z,23.10
2022-08-22T08:03:57.165Z,23.11
2022-08-22T08:06:26.345Z,23.05
2022-08-22T08:08:55.409Z,23.04
2022-08-22T08:11:26.217Z,23.25
2022-08-22T08:14:01.673Z,23.15
2022-08-22T08:16:34.572Z,23.06
2022-08-22T08:19:03.031Z,22.91
2022-08-22T08:21:37.868Z,23.16
2022-08-22T08:24:08.776Z,23.35
2022-08-22T08:27:01.684Z,23.58
2022-08-22T08:29:29.886Z,23.10
2022-08-22T08:31:58.508Z,23.46
2022-08-22T08:34:27.476Z,23.67
2022-08-22T08:37:22.417Z,23.62
2022-08-22T08:39:54.689Z,23.62
2022-08-22T08:42:59.553Z,23.79
2022-08-22T08:45:53.467Z,23.57
2022-08-22T08:48:35.542Z,23.97
2022-08-22T08:51:15.341Z,23.81
2022-08-22T08:54:10.124Z,23.83
2022-08-22T08:57:04.124Z,23.88
2022-08-22T08:59:49.471Z,23.97
2022-08-22T09:02:45.014Z,24.33
2022-08-22T09:05:53.442Z,24.33
2022-08-22T09:08:47.648Z,24.38
2022-08-22T09:11:27.077Z,24.25
2022-08-22T09:14:36.514Z,24.83
2022-08-22T09:17:15.157Z,24.74
2022-08-22T09:19:53.930Z,24.82
2022-08-22T09:22:33.404Z,24.64
2022-08-22T09:25:24.162Z,24.50
2022-08-22T09:28:03.048Z,24.39
2022-08-22T09:30:48.395Z,24.58
2022-08-22T09:33:24.600Z,25.18
2022-08-22T09:36:12.049Z,25.24
2022-08-22T09:38:55.392Z,25.35
2022-08-22T09:41:37.605Z,25.62
2022-08-22T09:44:19.438Z,26.04
2022-08-22T09:46:58.944Z,26.17
2022-08-22T09:49:34.215Z,26.52
2022-08-22T09:52:33.047Z,26.59
2022-08-22T09:55:18.834Z,27.06
2022-08-22T09:58:11.355Z,27.59
2022-08-22T10:00:55.638Z,27.44
2022-08-22T10:04:00.062Z,27.40
2022-08-22T10:06:41.746Z,27.54
2022-08-22T10:09:25.214Z,27.26
2022-08-22T10:12:12.464Z,26.97
2022-08-22T10:14:58.498Z,26.88
2022-08-22T10:17:36.507Z,27.54
2022-08-22T10:20:24.979Z,27.65
2022-08-22T10:23:21.007Z,27.66
2022-08-22T10:25:50.374Z,27.40
2022-08-22T10:28:39.528Z,27.42
2022-08-22T10:31:27.106Z,27.98
2022-08-22T10:34:04.629Z,28.57
2022-08-22T10:36:39.267Z,28.99
2022-08-22T10:39:11.916Z,28.33
2022-08-22T10:42:04.211Z,28.17
2022-08-22T10:44:52.186Z,28.20
2022-08-22T10:47:58.527Z,28.78
2022-08-22T10:50:44.875Z,28.33
2022-08-22T10:53:34.724Z,28.42
2022-08-22T10:56:27.510Z,28.22
2022-08-22T10:59:16.261Z,28.24
2022-08-22T11:02:06.257Z,28.36
2022-08-22T11:04:51.523Z,28.54
2022-08-22T11:07:42.279Z,28.84
2022-08-22T11:10:44.861Z,27.93
2022-08-22T11:13:27.084Z,28.09
2022-08-22T11:16:20.394Z,28.02
2022-08-22T11:19:02.112Z,27.88
2022-08-22T11:22:00.805Z,28.00
2022-08-22T11:24:35.460Z,28.51
2022-08-22T11:27:20.944Z,28.25
2022-08-22T11:29:58.962Z,28.55
2022-08-22T11:32:28.226Z,28.71
2022-08-22T11:35:00.155Z,28.72
2022-08-22T11:37:42.987Z,28.79
2022-08-22T11:40:20.214Z,28.95
2022-08-22T11:42:56.844Z,28.64
2022-08-22T11:45:34.601Z,28.77
2022-08-22T11:48:36.726Z,28.28
2022-08-22T11:51:34.118Z,28.31
2022-08-22T11:54:10.822Z,28.69
2022-08-22T11:57:01.415Z,28.96
2022-08-22T12:00:26.539Z,28.53
2022-08-22T12:03:04.896Z,29.02
2022-08-22T12:05:36.424Z,28.08
2022-08-22T12:08:10.476Z,28.62
2022-08-22T12:10:50.634Z,29.14
2022-08-22T12:13:37.930Z,29.03
2022-08-22T12:16:25.241Z,28.96
2022-08-22T12:18:52.770Z,28.94
2022-08-22T12:21:32.197Z,27.19
2022-08-22T12:24:34.639Z,28.73
2022-08-22T12:27:08.004Z,29.21
2022-08-22T12:29:58.367Z,29.12
2022-08-22T12:32:43.954Z,29.37
2022-08-22T12:35:34.899Z,28.52
2022-08-22T12:38:29.308Z,28.61
2022-08-22T12:41:34.751Z,28.59
2022-08-22T12:44:24.078Z,28.75
2022-08-22T12:47:02.134Z,29.32
2022-08-22T12:49:52.777Z,28.42
2022-08-22T12:52:54.499Z,29.28
2022-08-22T12:55:30.462Z,28.90
2022-08-22T12:58:33.175Z,29.17
2022-08-22T13:01:06.305Z,28.48
2022-08-22T13:03:41.093Z,29.59
2022-08-22T13:06:35.958Z,29.13
2022-08-22T13:09:10.080Z,28.08
2022-08-22T13:11:41.483Z,28.34
2022-08-22T13:14:15.634Z,29.14
2022-08-22T13:16:53.385Z,28.98
2022-08-22T13:19:24.379Z,29.57
2022-08-22T13:22:01.460Z,29.54
2022-08-22T13:24:52.604Z,28.95
2022-08-22T13:27:29.842Z,29.39
2022-08-22T13:30:00.989Z,30.10
2022-08-22T13:32:50.406Z,30.65
2022-08-22T13:35:24.391Z,30.96
2022-08-22T13:37:58.576Z,31.53
2022-08-22T13:40:29.608Z,31.21
2022-08-22T13:43:11.979Z,31.55
2022-08-22T13:45:50.353Z,30.69
2022-08-22T13:48:21.556Z,30.93
2022-08-22T13:51:08.225Z,30.71
2022-08-22T13:53:49.839Z,30.65
2022-08-22T13:56:39.206Z,30.89
2022-08-22T13:59:53.725Z,30.93
2022-08-22T14:02:43.439Z,29.23
2022-08-22T14:05:23.926Z,29.10
2022-08-22T14:08:12.602Z,29.54
2022-08-22T14:10:47.669Z,29.60
2022-08-22T14:13:44.581Z,30.29
2022-08-22T14:16:39.411Z,30.60
2022-08-22T14:19:14.731Z,30.05
2022-08-22T14:21:47.282Z,30.62
2022-08-22T14:24:25.698Z,31.04
2022-08-22T14:26:54.091Z,30.73
2022-08-22T14:29:29.228Z,30.26
2022-08-22T14:32:19.369Z,30.51
2022-08-22T14:35:11.241Z,30.40
2022-08-22T14:37:54.162Z,30.67
2022-08-22T14:40:35.230Z,30.46
2022-08-22T14:43:09.125Z,29.97
2022-08-22T14:45:40.492Z,30.28
2022-08-22T14:48:31.225Z,29.81
2022-08-22T14:51:10.172Z,30.37
2022-08-22T14:53:40.320Z,30.46
2022-08-22T14:56:24.999Z,30.29
2022-08-22T14:59:12.196Z,30.49
2022-08-22T15:01:55.801Z,30.44
2022-08-22T15:04:28.562Z,30.99
2022-08-22T15:06:58.733Z,30.81
2022-08-22T15:09:40.583Z,31.53
2022-08-22T15:12:32.170Z,32.29
2022-08-22T15:15:12.754Z,31.69
2022-08-22T15:17:44.131Z,31.60
2022-08-22T15:20:27.962Z,31.55
2022-08-22T15:23:02.352Z,31.93
2022-08-22T15:25:36.369Z,31.36
2022-08-22T15:28:20.328Z,31.55
2022-08-22T15:30:47.539Z,31.44
2022-08-22T15:33:29.358Z,31.36
2022-08-22T15:36:10.987Z,31.38
2022-08-22T15:38:54.224Z,30.64
2022-08-22T15:41:36.702Z,30.72
2022-08-22T15:44:14.962Z,30.46
2022-08-22T15:47:11.605Z,30.59
2022-08-22T15:49:56.338Z,31.39
2022-08-22T15:52:35.841Z,31.77
2022-08-22T15:55:16.198Z,31.52
2022-08-22T15:57:51.798Z,31.70
2022-08-22T16:00:45.666Z,31.08
2022-08-22T16:03:31.235Z,31.10
2022-08-22T16:06:01.954Z,30.66
2022-08-22T16:08:44.932Z,30.21
2022-08-22T16:11:38.569Z,30.80
2022-08-22T16:14:46.244Z,31.06
2022-08-22T16:17:44.606Z,31.36
2022-08-22T16:20:19.605Z,31.24
2022-08-22T16:22:59.185Z,30.33
2022-08-22T16:25:44.906Z,30.43
2022-08-22T16:28:56.155Z,29.51
2022-08-22T16:31:46.442Z,29.03
2022-08-22T16:34:16.654Z,28.08
2022-08-22T16:36:52.706Z,28.21
2022-08-22T16:39:22.542Z,26.82
2022-08-22T16:41:49.368Z,26.61
2022-08-22T16:44:28.327Z,26.24
2022-08-22T16:47:20.469Z,26.78
2022-08-22T16:49:50.303Z,26.77
2022-08-22T16:52:26.395Z,26.88
2022-08-22T16:55:26.657Z,26.52
2022-08-22T16:58:05.597Z,26.73
2022-08-22T17:00:36.341Z,26.62
2022-08-22T17:03:25.455Z,25.67
2022-08-22T17:06:15.408Z,25.98
2022-08-22T17:09:00.162Z,26.23
2022-08-22T17:11:45.775Z,25.31
2022-08-22T17:14:41.430Z,25.78
2022-08-22T17:17:41.655Z,25.31
2022-08-22T17:20:17.777Z,25.71
2022-08-22T17:23:00.067Z,25.82
2022-08-22T17:25:44.749Z,25.66
2022-08-22T17:28:20.253Z,25.35
2022-08-22T17:31:12.453Z,25.24
2022-08-22T17:33:52.129Z,25.03
2022-08-22T17:36:37.962Z,25.63
2022-08-22T17:39:29.084Z,25.34
2022-08-22T17:42:21.113Z,25.01
2022-08-22T17:45:04.724Z,24.86
2022-08-22T17:47:42.105Z,24.89
2022-08-22T17:50:40.219Z,24.61
2022-08-22T17:53:22.249Z,25.03
2022-08-22T17:56:04.317Z,24.73
2022-08-22T17:58:44.363Z,25.14
2022-08-22T18:01:39.033Z,24.56
2022-08-22T18:04:16.875Z,24.82
2022-08-22T18:06:56.308Z,24.38
2022-08-22T18:09:36.978Z,24.74
2022-08-22T18:12:17.126Z,24.84
2022-08-22T18:14:56.582Z,24.64
2022-08-22T18:17:40.130Z,24.55
2022-08-22T18:20:15.999Z,24.58
2022-08-22T18:22:47.460Z,24.41
2022-08-22T18:25:17.351Z,24.43
2022-08-22T18:27:52.155Z,24.22
2022-08-22T18:30:23.751Z,24.07
2022-08-22T18:33:11.365Z,23.78
2022-08-22T18:35:45.413Z,24.03
2022-08-22T18:38:50.798Z,23.50
2022-08-22T18:41:34.259Z,23.62
2022-08-22T18:44:12.603Z,23.62
2022-08-22T18:46:42.801Z,23.75
2022-08-22T18:49:19.718Z,23.68
2022-08-22T18:52:20.103Z,23.70
2022-08-22T18:55:03.381Z,23.50
2022-08-22T18:57:42.894Z,23.89
2022-08-22T19:00:47.432Z,23.28
2022-08-22T19:03:27.948Z,23.49
2022-08-22T19:06:06.930Z,23.38
2022-08-22T19:08:53.531Z,23.45
2022-08-22T19:11:49.709Z,23.34
2022-08-22T19:14:16.585Z,23.42
2022-08-22T19:17:16.254Z,24.20
2022-08-22T19:20:14.490Z,24.22
2022-08-22T19:22:41.472Z,23.44
2022-08-22T19:25:08.839Z,23.24
2022-08-22T19:28:03.429Z,23.51
2022-08-22T19:30:41.429Z,23.27
2022-08-22T19:33:19.594Z,23.37
2022-08-22T19:35:54.616Z,23.40
2022-08-22T19:38:55.653Z,23.05
2022-08-22T19:41:41.463Z,23.29
2022-08-22T19:44:12.830Z,23.15
2022-08-22T19:46:42.072Z,23.16
2022-08-22T19:49:27.507Z,23.06
2022-08-22T19:52:03.112Z,23.31
2022-08-22T19:54:33.611Z,23.19
2022-08-22T19:57:14.851Z,23.30
2022-08-22T20:00:00.849Z,23.30
2022-08-22T20:02:57.411Z,23.43
2022-08-22T20:05:39.588Z,23.41
2022-08-22T20:08:25.427Z,23.50
2022-08-22T20:11:42.303Z,23.54
2022-08-22T20:14:31.579Z,24.17
2022-08-22T20:17:25.847Z,21.68
2022-08-22T20:22:49.022Z,22.24
2022-08-22T20:25:44.404Z,22.20
2022-08-22T20:28:31.567Z,22.10
2022-08-22T20:31:01.304Z,22.00
2022-08-22T20:33:33.597Z,21.84
2022-08-22T20:36:06.843Z,21.72
2022-08-22T20:38:55.329Z,21.64
2022-08-22T20:41:29.036Z,21.63
2022-08-22T20:44:19.863Z,21.52
2022-08-22T20:46:53.532Z,21.51
2022-08-22T20:49:41.835Z,21.58
2022-08-22T20:52:36.572Z,21.41
2022-08-22T20:55:12.091Z,20.85
2022-08-22T20:57:52.307Z,20.57
2022-08-22T21:00:25.153Z,20.33
2022-08-22T21:03:04.132Z,20.43
2022-08-22T21:05:39.230Z,20.47
2022-08-22T21:08:08.480Z,20.32
2022-08-22T21:10:55.960Z,20.80
2022-08-22T21:13:37.717Z,20.92
2022-08-22T21:16:13.002Z,21.09
2022-08-22T21:18:46.722Z,21.17
2022-08-22T21:21:17.352Z,21.23
2022-08-22T21:23:57.407Z,21.27
2022-08-22T21:26:31.420Z,21.26
2022-08-22T21:29:12.705Z,21.09
2022-08-22T21:31:52.826Z,21.10
2022-08-22T21:34:22.605Z,21.17
2022-08-22T21:36:57.861Z,21.18
2022-08-22T21:39:36.086Z,21.17
2022-08-22T21:42:02.817Z,21.13
2022-08-22T21:44:54.223Z,21.08
2022-08-22T21:47:34.596Z,21.11
2022-08-22T21:50:15.602Z,20.97
2022-08-22T21:52:59.695Z,20.89
2022-08-22T21:55:31.827Z,20.78
2022-08-22T21:58:35.607Z,20.33
2022-08-22T22:01:31.860Z,20.31
2022-08-22T22:03:59.846Z,20.30
2022-08-22T22:06:27.396Z,20.39
2022-08-22T22:08:54.385Z,20.46
2022-08-22T22:11:21.423Z,20.50
2022-08-22T22:13:48.983Z,20.40
2022-08-22T22:16:22.947Z,20.44
2022-08-22T22:18:49.762Z,20.14
2022-08-22T22:21:16.940Z,19.98
2022-08-22T22:23:43.853Z,20.23
2022-08-22T22:26:11.274Z,20.36
2022-08-22T22:28:41.235Z,20.19
2022-08-22T22:31:09.094Z,20.20
2022-08-22T22:33:39.183Z,19.84
2022-08-22T22:36:24.104Z,20.09
2022-08-22T22:38:52.679Z,19.91
2022-08-22T22:41:23.316Z,19.78
2022-08-22T22:43:53.882Z,19.88
2022-08-22T22:46:23.926Z,19.83
2022-08-22T22:48:50.808Z,20.07
2022-08-22T22:51:17.712Z,20.08
2022-08-22T22:53:45.071Z,20.06
2022-08-22T22:56:16.012Z,19.93
2022-08-22T22:58:43.835Z,19.84
2022-08-22T23:01:20.358Z,19.84
2022-08-22T23:03:48.537Z,19.82
2022-08-22T23:06:19.200Z,19.50
2022-08-22T23:08:47.298Z,19.49
2022-08-22T23:11:26.157Z,20.00
2022-08-22T23:13:53.600Z,20.22
2022-08-22T23:16:26.871Z,19.93
2022-08-22T23:18:54.278Z,20.60
2022-08-22T23:21:30.104Z,20.29
2022-08-22T23:23:59.043Z,19.95
2022-08-22T23:26:27.069Z,20.09
2022-08-22T23:28:54.154Z,19.65
2022-08-22T23:31:32.539Z,19.81
2022-08-22T23:34:15.222Z,20.01
2022-08-22T23:36:45.414Z,19.86
2022-08-22T23:39:14.513Z,19.91
2022-08-22T23:41:42.241Z,19.98
2022-08-22T23:44:13.484Z,19.96
2022-08-22T23:46:41.582Z,20.04
2022-08-22T23:49:08.931Z,20.06
2022-08-22T23:51:36.251Z,19.93
2022-08-22T23:54:04.534Z,19.95
2022-08-22T23:56:43.211Z,19.92
2022-08-22T23:59:14.065Z,19.92
